createdAt,value
2018-07-08T00:02:11.367Z,11.17
2018-07-08T00:04:39.747Z,7.47
2018-07-08T00:07:08.147Z,18.23
2018-07-08T00:09:36.551Z,22.53
2018-07-08T00:12:04.955Z,16.23
2018-07-08T00:14:33.327Z,12.80
2018-07-08T00:17:01.732Z,19.13
2018-07-08T00:19:30.115Z,10.63
2018-07-08T00:21:58.506Z,22.90
2018-07-08T00:24:26.903Z,9.77
2018-07-08T00:26:55.302Z,13.50
2018-07-08T00:29:23.818Z,9.13
2018-07-08T00:31:52.214Z,9.57
2018-07-08T00:34:20.886Z,15.67
2018-07-08T00:36:49.290Z,20.60
2018-07-08T00:39:17.667Z,23.40
2018-07-08T00:41:46.091Z,14.10
2018-07-08T00:44:14.470Z,31.27
2018-07-08T00:46:42.875Z,20.87
2018-07-08T00:49:11.468Z,28.10
2018-07-08T00:51:39.899Z,11.50
2018-07-08T00:54:08.277Z,12.90
2018-07-08T00:56:36.674Z,17.13
2018-07-08T00:59:05.054Z,11.10
2018-07-08T01:01:33.474Z,14.00
2018-07-08T01:04:01.904Z,10.77
2018-07-08T01:06:30.304Z,11.97
2018-07-08T01:08:58.715Z,12.73
2018-07-08T01:11:27.135Z,13.87
2018-07-08T01:13:55.514Z,5.80
2018-07-08T01:16:23.900Z,12.40
2018-07-08T01:18:52.297Z,15.10
2018-07-08T01:21:20.682Z,12.33
2018-07-08T01:23:49.079Z,10.50
2018-07-08T01:26:17.470Z,11.33
2018-07-08T01:28:45.862Z,12.43
2018-07-08T01:31:14.243Z,8.10
2018-07-08T01:33:42.646Z,13.50
2018-07-08T01:36:11.186Z,14.63
2018-07-08T01:38:39.581Z,14.60
2018-07-08T01:41:07.959Z,14.57
2018-07-08T01:43:36.358Z,14.30
2018-07-08T01:46:04.757Z,17.90
2018-07-08T01:48:33.164Z,15.40
2018-07-08T01:51:01.535Z,11.73
2018-07-08T01:53:29.979Z,7.13
2018-07-08T01:55:58.354Z,13.63
2018-07-08T01:58:26.754Z,23.60
2018-07-08T02:00:55.134Z,15.23
2018-07-08T02:03:23.535Z,11.30
2018-07-08T02:05:52.170Z,21.00
2018-07-08T02:08:20.588Z,28.73
2018-07-08T02:10:48.967Z,24.97
2018-07-08T02:13:17.379Z,19.53
2018-07-08T02:15:45.759Z,22.70
2018-07-08T02:18:14.199Z,22.70
2018-07-08T02:20:42.580Z,15.73
2018-07-08T02:25:36.282Z,16.67
2018-07-08T02:28:04.741Z,11.83
2018-07-08T02:30:33.126Z,19.40
2018-07-08T02:33:01.536Z,23.97
2018-07-08T02:35:29.933Z,14.40
2018-07-08T02:37:58.327Z,27.30
2018-07-08T02:40:26.720Z,20.70
2018-07-08T02:42:55.123Z,22.37
2018-07-08T02:45:23.507Z,25.07
2018-07-08T02:47:51.931Z,30.13
2018-07-08T02:50:20.314Z,20.00
2018-07-08T02:52:48.715Z,33.17
2018-07-08T02:55:17.116Z,22.00
2018-07-08T02:57:45.521Z,17.17
2018-07-08T03:00:13.903Z,23.70
2018-07-08T03:02:42.323Z,18.70
2018-07-08T03:05:10.711Z,36.23
2018-07-08T03:07:39.535Z,27.77
2018-07-08T03:10:07.941Z,21.67
2018-07-08T03:12:36.343Z,21.07
2018-07-08T03:15:04.764Z,23.53
2018-07-08T03:17:33.147Z,17.47
2018-07-08T03:20:01.542Z,20.87
2018-07-08T03:22:29.934Z,18.77
2018-07-08T03:24:58.326Z,10.00
2018-07-08T03:27:26.706Z,12.80
2018-07-08T03:29:55.115Z,27.63
2018-07-08T03:32:23.479Z,9.00
2018-07-08T03:34:51.873Z,26.40
2018-07-08T03:37:20.247Z,26.17
2018-07-08T03:39:48.733Z,22.83
2018-07-08T03:42:17.102Z,14.47
2018-07-08T03:44:45.498Z,22.97
2018-07-08T03:47:13.894Z,17.27
2018-07-08T03:49:42.296Z,20.80
2018-07-08T03:52:10.671Z,22.73
2018-07-08T03:54:39.095Z,20.63
2018-07-08T03:57:07.475Z,37.00
2018-07-08T03:59:35.883Z,13.77
2018-07-08T04:02:04.263Z,17.93
2018-07-08T04:04:32.668Z,14.80
2018-07-08T04:07:01.060Z,22.03
2018-07-08T04:09:29.483Z,27.07
2018-07-08T04:11:57.865Z,21.93
2018-07-08T04:14:26.275Z,20.70
2018-07-08T04:16:54.667Z,17.33
2018-07-08T04:19:23.075Z,25.77
2018-07-08T04:21:51.455Z,13.97
2018-07-08T04:24:19.862Z,20.70
2018-07-08T04:26:48.262Z,18.17
2018-07-08T04:29:16.669Z,31.37
2018-07-08T04:31:45.102Z,15.37
2018-07-08T04:34:13.507Z,21.10
2018-07-08T04:36:41.888Z,31.73
2018-07-08T04:39:10.554Z,19.90
2018-07-08T04:41:38.925Z,40.67
2018-07-08T04:44:07.331Z,22.43
2018-07-08T04:46:35.706Z,24.63
2018-07-08T04:49:04.129Z,29.97
2018-07-08T04:51:32.820Z,15.40
2018-07-08T04:54:01.231Z,16.90
2018-07-08T04:56:29.611Z,23.13
2018-07-08T04:58:58.016Z,19.27
2018-07-08T05:01:26.395Z,33.53
2018-07-08T05:03:54.867Z,27.63
2018-07-08T05:06:23.266Z,22.30
2018-07-08T05:08:51.689Z,14.57
2018-07-08T05:11:20.165Z,21.73
2018-07-08T05:13:48.663Z,25.60
2018-07-08T05:16:17.062Z,22.30
2018-07-08T05:18:45.439Z,16.97
2018-07-08T05:21:13.839Z,13.07
2018-07-08T05:23:42.207Z,18.93
2018-07-08T05:26:10.611Z,17.67
2018-07-08T05:28:38.990Z,23.97
2018-07-08T05:31:07.415Z,17.07
2018-07-08T05:33:35.804Z,18.17
2018-07-08T05:36:04.204Z,24.27
2018-07-08T05:38:32.589Z,19.90
2018-07-08T05:41:00.995Z,23.77
2018-07-08T05:43:29.382Z,16.13
2018-07-08T05:45:57.791Z,22.30
2018-07-08T05:48:26.204Z,22.93
2018-07-08T05:50:54.655Z,23.90
2018-07-08T05:53:23.048Z,26.63
2018-07-08T05:55:51.454Z,19.63
2018-07-08T05:58:19.839Z,20.33
2018-07-08T06:00:48.252Z,17.40
2018-07-08T06:03:16.630Z,15.83
2018-07-08T06:05:45.022Z,20.70
2018-07-08T06:08:13.430Z,23.40
2018-07-08T06:10:41.852Z,24.93
2018-07-08T06:13:10.230Z,25.27
2018-07-08T06:15:38.634Z,29.67
2018-07-08T06:18:07.050Z,24.27
2018-07-08T06:20:35.458Z,32.83
2018-07-08T06:23:03.902Z,24.93
2018-07-08T06:25:32.322Z,24.00
2018-07-08T06:28:00.700Z,24.30
2018-07-08T06:30:29.363Z,16.93
2018-07-08T06:32:57.735Z,24.83
2018-07-08T06:35:26.130Z,24.57
2018-07-08T06:37:54.502Z,33.73
2018-07-08T06:40:22.908Z,25.30
2018-07-08T06:42:51.301Z,32.20
2018-07-08T06:45:19.703Z,28.17
2018-07-08T06:47:48.182Z,19.10
2018-07-08T06:50:16.576Z,22.07
2018-07-08T06:52:44.967Z,31.90
2018-07-08T06:55:13.372Z,20.67
2018-07-08T06:57:41.749Z,23.40
2018-07-08T07:00:10.160Z,22.73
2018-07-08T07:02:38.538Z,16.83
2018-07-08T07:05:06.998Z,22.97
2018-07-08T07:07:35.434Z,31.00
2018-07-08T07:10:03.867Z,19.97
2018-07-08T07:12:32.249Z,19.10
2018-07-08T07:15:00.635Z,23.70
2018-07-08T07:17:29.117Z,36.07
2018-07-08T07:19:57.463Z,22.43
2018-07-08T07:22:25.869Z,26.17
2018-07-08T07:24:54.355Z,28.97
2018-07-08T07:27:22.798Z,25.87
2018-07-08T07:29:51.670Z,25.00
2018-07-08T07:32:20.535Z,20.57
2018-07-08T07:34:48.922Z,26.10
2018-07-08T07:37:17.332Z,25.73
2018-07-08T07:39:45.780Z,30.67
2018-07-08T07:42:14.178Z,26.17
2018-07-08T07:44:42.550Z,26.83
2018-07-08T07:47:10.960Z,26.37
2018-07-08T07:49:39.342Z,19.10
2018-07-08T07:52:07.786Z,30.00
2018-07-08T07:54:36.179Z,26.43
2018-07-08T07:57:04.644Z,16.10
2018-07-08T07:59:33.018Z,19.93
2018-07-08T08:02:01.427Z,22.23
2018-07-08T08:04:29.807Z,28.00
2018-07-08T08:06:58.211Z,25.27
2018-07-08T08:09:26.623Z,29.50
2018-07-08T08:11:55.022Z,31.70
2018-07-08T08:14:23.396Z,26.13
2018-07-08T08:16:51.814Z,22.97
2018-07-08T08:19:20.192Z,20.90
2018-07-08T08:21:48.596Z,20.77
2018-07-08T08:24:16.983Z,18.53
2018-07-08T08:26:45.404Z,24.00
2018-07-08T08:29:13.811Z,28.33
2018-07-08T08:31:42.212Z,26.40
2018-07-08T08:35:15.984Z,34.30
2018-07-08T08:37:54.221Z,22.37
2018-07-08T08:40:23.921Z,30.50
2018-07-08T08:42:52.615Z,20.13
2018-07-08T08:45:22.003Z,28.67
2018-07-08T08:47:50.411Z,23.10
2018-07-08T08:50:18.863Z,35.07
2018-07-08T08:52:47.275Z,26.43
2018-07-08T08:55:15.835Z,34.87
2018-07-08T08:57:44.247Z,21.60
2018-07-08T09:00:15.438Z,27.20
2018-07-08T09:02:43.851Z,22.77
2018-07-08T09:05:12.243Z,22.30
2018-07-08T09:07:40.813Z,19.30
2018-07-08T09:10:09.220Z,23.43
2018-07-08T09:12:37.637Z,26.10
2018-07-08T09:15:06.137Z,23.10
2018-07-08T09:17:34.536Z,35.53
2018-07-08T09:20:02.928Z,25.67
2018-07-08T09:22:31.334Z,22.27
2018-07-08T09:24:59.752Z,18.90
2018-07-08T09:27:28.281Z,27.97
2018-07-08T09:29:56.735Z,28.37
2018-07-08T09:32:25.129Z,17.93
2018-07-08T09:34:53.506Z,18.37
2018-07-08T09:37:21.930Z,23.97
2018-07-08T09:39:50.341Z,28.93
2018-07-08T09:42:18.751Z,29.73
2018-07-08T09:44:47.144Z,21.43
2018-07-08T09:47:15.549Z,31.07
2018-07-08T09:49:43.931Z,28.43
2018-07-08T09:52:12.335Z,18.77
2018-07-08T09:54:40.713Z,17.27
2018-07-08T09:57:09.122Z,21.17
2018-07-08T09:59:37.503Z,16.30
2018-07-08T10:02:05.947Z,22.93
2018-07-08T10:04:34.332Z,18.87
2018-07-08T10:07:02.759Z,19.43
2018-07-08T10:09:31.182Z,18.40
2018-07-08T10:11:59.591Z,19.30
2018-07-08T10:14:27.966Z,14.97
2018-07-08T10:16:56.347Z,17.80
2018-07-08T10:19:24.780Z,23.50
2018-07-08T10:21:53.196Z,13.40
2018-07-08T10:24:21.579Z,16.03
2018-07-08T10:27:08.711Z,24.83
2018-07-08T10:29:37.099Z,16.90
2018-07-08T10:32:05.495Z,16.90
2018-07-08T10:34:33.979Z,13.80
2018-07-08T10:37:02.432Z,16.73
2018-07-08T10:39:30.979Z,21.40
2018-07-08T10:41:59.392Z,16.60
2018-07-08T10:44:27.790Z,21.37
2018-07-08T10:46:56.184Z,18.67
2018-07-08T10:49:24.601Z,17.73
2018-07-08T10:51:52.995Z,18.97
2018-07-08T10:54:21.403Z,15.53
2018-07-08T10:56:49.778Z,10.93
2018-07-08T10:59:18.217Z,17.03
2018-07-08T11:01:46.633Z,15.70
2018-07-08T11:04:15.103Z,16.67
2018-07-08T11:06:43.478Z,16.47
2018-07-08T11:09:12.054Z,16.03
2018-07-08T11:11:40.434Z,14.63
2018-07-08T11:14:08.849Z,19.30
2018-07-08T11:16:37.282Z,13.70
2018-07-08T11:19:05.835Z,15.37
2018-07-08T11:21:34.240Z,10.40
2018-07-08T11:24:02.675Z,11.60
2018-07-08T11:26:31.063Z,20.43
2018-07-08T11:28:59.475Z,17.57
2018-07-08T11:31:27.856Z,14.43
2018-07-08T11:33:56.254Z,11.50
2018-07-08T11:36:24.647Z,16.30
2018-07-08T11:38:53.060Z,21.53
2018-07-08T11:41:21.444Z,13.63
2018-07-08T11:43:49.964Z,18.23
2018-07-08T11:46:18.420Z,9.77
2018-07-08T11:48:46.905Z,20.07
2018-07-08T11:51:15.294Z,9.77
2018-07-08T11:53:43.694Z,18.00
2018-07-08T11:56:12.102Z,24.57
2018-07-08T11:58:40.527Z,14.50
2018-07-08T12:01:08.911Z,24.77
2018-07-08T12:03:37.322Z,11.20
2018-07-08T12:06:05.719Z,11.30
2018-07-08T12:08:34.142Z,24.13
2018-07-08T12:11:02.531Z,12.50
2018-07-08T12:13:30.949Z,12.37
2018-07-08T12:15:59.327Z,9.83
2018-07-08T12:18:27.827Z,14.23
2018-07-08T12:20:56.267Z,12.50
2018-07-08T12:23:24.829Z,9.27
2018-07-08T12:25:53.239Z,14.10
2018-07-08T12:28:21.606Z,12.40
2018-07-08T12:30:50.055Z,20.40
2018-07-08T12:33:18.435Z,15.23
2018-07-08T12:35:46.841Z,11.83
2018-07-08T12:38:15.213Z,12.47
2018-07-08T12:40:43.616Z,13.53
2018-07-08T12:43:12.005Z,15.00
2018-07-08T12:45:40.406Z,14.67
2018-07-08T12:48:08.818Z,15.37
2018-07-08T12:50:37.331Z,14.03
2018-07-08T12:53:06.042Z,10.83
2018-07-08T12:55:35.974Z,16.03
2018-07-08T12:58:05.450Z,17.63
2018-07-08T13:00:33.879Z,15.83
2018-07-08T13:03:02.271Z,12.30
2018-07-08T13:05:30.699Z,12.50
2018-07-08T13:07:59.131Z,20.63
2018-07-08T13:10:27.624Z,16.83
2018-07-08T13:12:56.007Z,14.37
2018-07-08T13:15:24.476Z,17.03
2018-07-08T13:17:52.879Z,15.90
2018-07-08T13:20:21.287Z,19.00
2018-07-08T13:22:50.215Z,16.30
2018-07-08T13:25:18.651Z,17.40
2018-07-08T13:27:47.027Z,11.90
2018-07-08T13:30:15.469Z,14.57
2018-07-08T13:32:43.946Z,19.73
2018-07-08T13:35:12.434Z,20.30
2018-07-08T13:37:40.807Z,15.50
2018-07-08T13:40:09.199Z,9.63
2018-07-08T13:42:37.631Z,19.57
2018-07-08T13:45:06.066Z,16.60
2018-07-08T13:47:34.489Z,9.70
2018-07-08T13:50:02.978Z,11.40
2018-07-08T13:52:31.354Z,16.57
2018-07-08T13:54:59.758Z,9.43
2018-07-08T13:57:28.587Z,15.10
2018-07-08T13:59:57.107Z,12.10
2018-07-08T14:02:25.510Z,19.50
2018-07-08T14:04:53.913Z,13.97
2018-07-08T14:07:22.295Z,16.23
2018-07-08T14:09:50.714Z,12.83
2018-07-08T14:12:19.087Z,8.00
2018-07-08T14:14:47.526Z,11.17
2018-07-08T14:17:15.951Z,11.60
2018-07-08T14:19:44.335Z,11.23
2018-07-08T14:22:12.735Z,16.67
2018-07-08T14:24:41.105Z,13.30
2018-07-08T14:27:09.515Z,12.73
2018-07-08T14:29:37.891Z,11.27
2018-07-08T14:32:06.309Z,12.50
2018-07-08T14:34:34.687Z,9.73
2018-07-08T14:37:03.103Z,10.10
2018-07-08T14:39:31.493Z,12.80
2018-07-08T14:41:59.903Z,11.10
2018-07-08T14:44:28.294Z,15.47
2018-07-08T14:46:56.730Z,10.93
2018-07-08T14:49:25.103Z,11.90
2018-07-08T14:51:53.635Z,13.50
2018-07-08T14:54:22.010Z,9.10
2018-07-08T14:56:50.411Z,12.77
2018-07-08T14:59:18.787Z,8.93
2018-07-08T15:01:47.178Z,13.60
2018-07-08T15:04:15.555Z,9.60
2018-07-08T15:06:43.949Z,13.13
2018-07-08T15:09:12.922Z,7.70
2018-07-08T15:11:41.543Z,11.33
2018-07-08T15:14:10.307Z,8.20
2018-07-08T15:16:38.707Z,12.60
2018-07-08T15:19:07.367Z,8.50
2018-07-08T15:21:35.902Z,8.47
2018-07-08T15:24:04.294Z,10.43
2018-07-08T15:26:32.691Z,11.80
2018-07-08T15:29:01.069Z,11.43
2018-07-08T15:31:29.463Z,8.50
2018-07-08T15:33:57.831Z,7.53
2018-07-08T15:36:26.235Z,8.97
2018-07-08T15:38:54.618Z,12.50
2018-07-08T15:41:23.006Z,12.83
2018-07-08T15:43:51.413Z,13.53
2018-07-08T15:46:19.819Z,11.77
2018-07-08T15:48:48.327Z,11.20
2018-07-08T15:51:16.735Z,7.13
2018-07-08T15:53:45.106Z,6.60
2018-07-08T15:56:13.496Z,7.63
2018-07-08T15:58:41.879Z,6.23
2018-07-08T16:01:10.284Z,7.07
2018-07-08T16:03:38.658Z,7.43
2018-07-08T16:06:07.101Z,7.57
2018-07-08T16:08:36.038Z,6.60
2018-07-08T16:11:04.436Z,7.07
2018-07-08T16:13:32.809Z,10.10
2018-07-08T16:16:01.209Z,6.50
2018-07-08T16:18:29.710Z,9.50
2018-07-08T16:20:58.048Z,9.73
2018-07-08T16:23:26.441Z,7.60
2018-07-08T16:25:54.986Z,22.60
2018-07-08T16:28:23.388Z,9.80
2018-07-08T16:30:51.825Z,8.60
2018-07-08T16:33:20.227Z,6.30
2018-07-08T16:35:54.303Z,16.70
2018-07-08T16:38:23.107Z,6.20
2018-07-08T16:40:52.419Z,6.67
2018-07-08T16:43:20.845Z,18.30
2018-07-08T16:45:49.351Z,7.23
2018-07-08T16:48:17.774Z,5.70
2018-07-08T16:50:46.506Z,5.57
2018-07-08T16:53:14.915Z,8.77
2018-07-08T16:55:43.308Z,9.10
2018-07-08T16:58:11.739Z,6.33
2018-07-08T17:00:40.124Z,5.40
2018-07-08T17:03:08.543Z,6.60
2018-07-08T17:05:36.931Z,9.50
2018-07-08T17:08:05.422Z,5.70
2018-07-08T17:10:34.458Z,6.00
2018-07-08T17:13:02.867Z,5.70
2018-07-08T17:15:31.262Z,5.90
2018-07-08T17:17:59.676Z,7.47
2018-07-08T17:20:28.063Z,10.13
2018-07-08T17:22:56.479Z,8.13
2018-07-08T17:25:24.870Z,9.93
2018-07-08T17:27:53.699Z,7.00
2018-07-08T17:30:22.132Z,9.33
2018-07-08T17:32:51.257Z,7.37
2018-07-08T17:35:19.687Z,7.30
2018-07-08T17:37:48.094Z,11.40
2018-07-08T17:40:16.522Z,6.93
2018-07-08T17:42:45.172Z,8.80
2018-07-08T17:45:13.575Z,15.37
2018-07-08T17:47:42.032Z,6.27
2018-07-08T17:50:10.411Z,6.60
2018-07-08T17:52:38.827Z,8.67
2018-07-08T17:55:07.387Z,6.57
2018-07-08T17:57:35.808Z,6.43
2018-07-08T18:00:04.263Z,6.70
2018-07-08T18:02:32.698Z,7.50
2018-07-08T18:05:01.094Z,11.23
2018-07-08T18:07:29.522Z,7.17
2018-07-08T18:09:57.974Z,7.20
2018-07-08T18:12:26.650Z,9.47
2018-07-08T18:14:55.070Z,13.13
2018-07-08T18:17:23.511Z,12.37
2018-07-08T18:19:51.892Z,8.13
2018-07-08T18:22:20.375Z,7.97
2018-07-08T18:24:48.760Z,11.37
2018-07-08T18:27:17.161Z,9.77
2018-07-08T18:29:45.571Z,12.67
2018-07-08T18:32:13.959Z,17.03
2018-07-08T18:34:42.372Z,11.47
2018-07-08T18:37:10.755Z,8.20
2018-07-08T18:39:39.151Z,7.40
2018-07-08T18:42:07.551Z,11.87
2018-07-08T18:44:35.980Z,8.37
2018-07-08T18:47:04.421Z,14.30
2018-07-08T18:49:33.076Z,8.20
2018-07-08T18:52:01.478Z,10.70
2018-07-08T18:54:29.895Z,11.10
2018-07-08T18:56:58.303Z,12.90
2018-07-08T18:59:26.714Z,7.87
2018-07-08T19:01:55.291Z,12.93
2018-07-08T19:04:23.695Z,11.83
2018-07-08T19:06:52.071Z,9.63
2018-07-08T19:09:20.602Z,7.63
2018-07-08T19:11:49.147Z,12.53
2018-07-08T19:14:17.597Z,13.40
2018-07-08T19:16:45.980Z,10.23
2018-07-08T19:19:14.392Z,10.40
2018-07-08T19:21:42.770Z,11.80
2018-07-08T19:24:11.172Z,9.33
2018-07-08T19:26:39.550Z,9.73
2018-07-08T19:29:07.954Z,9.33
2018-07-08T19:31:36.363Z,9.57
2018-07-08T19:34:04.810Z,8.47
2018-07-08T19:36:33.191Z,9.73
2018-07-08T19:39:01.593Z,17.83
2018-07-08T19:41:29.984Z,10.30
2018-07-08T19:43:58.912Z,16.37
2018-07-08T19:46:28.139Z,8.53
2018-07-08T19:48:56.602Z,10.10
2018-07-08T19:51:24.978Z,15.23
2018-07-08T19:53:53.415Z,18.03
2018-07-08T19:56:21.794Z,11.83
2018-07-08T19:58:50.186Z,12.10
2018-07-08T20:01:18.683Z,9.37
2018-07-08T20:03:47.082Z,18.33
2018-07-08T20:06:15.490Z,17.67
2018-07-08T20:08:43.931Z,11.27
2018-07-08T20:11:12.430Z,12.20
2018-07-08T20:13:40.827Z,14.93
2018-07-08T20:16:09.201Z,18.90
2018-07-08T20:18:37.603Z,15.03
2018-07-08T20:21:06.025Z,9.30
2018-07-08T20:23:34.434Z,19.27
2018-07-08T20:26:02.810Z,14.27
2018-07-08T20:28:31.197Z,14.83
2018-07-08T20:30:59.599Z,14.17
2018-07-08T20:33:28.971Z,11.30
2018-07-08T20:35:57.365Z,22.93
2018-07-08T20:38:25.751Z,15.67
2018-07-08T20:40:54.164Z,19.10
2018-07-08T20:43:22.547Z,16.53
2018-07-08T20:45:50.947Z,32.57
2018-07-08T20:48:19.360Z,16.57
2018-07-08T20:50:47.767Z,24.23
2018-07-08T20:53:16.294Z,16.73
2018-07-08T20:55:44.687Z,14.43
2018-07-08T20:58:13.067Z,12.83
2018-07-08T21:00:41.466Z,12.00
2018-07-08T21:03:09.887Z,16.67
2018-07-08T21:05:38.267Z,16.27
2018-07-08T21:08:06.663Z,16.53
2018-07-08T21:10:35.090Z,18.20
2018-07-08T21:13:03.467Z,11.73
2018-07-08T21:15:31.879Z,11.27
2018-07-08T21:18:00.262Z,20.63
2018-07-08T21:20:28.663Z,13.80
2018-07-08T21:22:57.059Z,18.40
2018-07-08T21:25:25.467Z,11.17
2018-07-08T21:27:53.856Z,13.63
2018-07-08T21:30:22.255Z,17.27
2018-07-08T21:32:50.626Z,12.40
2018-07-08T21:35:19.021Z,12.17
2018-07-08T21:37:47.617Z,13.57
2018-07-08T21:40:16.018Z,12.63
2018-07-08T21:42:44.407Z,18.63
2018-07-08T21:45:12.843Z,17.30
2018-07-08T21:47:41.214Z,21.93
2018-07-08T21:50:09.623Z,16.00
2018-07-08T21:52:38.003Z,24.40
2018-07-08T21:55:06.540Z,15.13
2018-07-08T21:57:34.930Z,18.33
2018-07-08T22:00:03.342Z,22.83
2018-07-08T22:02:31.710Z,18.00
2018-07-08T22:05:00.127Z,22.27
2018-07-08T22:08:33.905Z,38.17
2018-07-08T22:11:03.982Z,34.33
2018-07-08T22:13:32.362Z,34.77
2018-07-08T22:16:00.893Z,34.70
2018-07-08T22:18:29.276Z,26.00
2018-07-08T22:20:57.687Z,25.17
2018-07-08T22:23:26.062Z,30.67
2018-07-08T22:25:54.502Z,30.33
2018-07-08T22:28:22.970Z,26.20
2018-07-08T22:30:51.368Z,28.40
2018-07-08T22:33:20.044Z,29.07
2018-07-08T22:35:48.445Z,23.00
2018-07-08T22:38:17.108Z,22.27
2018-07-08T22:40:45.816Z,19.87
2018-07-08T22:43:14.379Z,16.70
2018-07-08T22:45:42.781Z,16.13
2018-07-08T22:48:11.155Z,25.20
2018-07-08T22:50:39.554Z,13.20
2018-07-08T22:53:07.942Z,17.63
2018-07-08T22:55:36.348Z,16.47
2018-07-08T22:58:05.371Z,16.70
2018-07-08T23:00:45.017Z,18.23
2018-07-08T23:03:34.770Z,19.40
2018-07-08T23:06:03.176Z,20.83
2018-07-08T23:08:31.592Z,22.13
2018-07-08T23:11:00.010Z,11.97
2018-07-08T23:13:28.394Z,19.67
2018-07-08T23:15:56.807Z,21.80
2018-07-08T23:18:25.203Z,20.10
2018-07-08T23:20:53.618Z,15.57
2018-07-08T23:23:22.005Z,23.37
2018-07-08T23:25:50.452Z,13.83
2018-07-08T23:28:18.813Z,15.73
2018-07-08T23:30:47.227Z,19.43
2018-07-08T23:33:16.066Z,17.57
2018-07-08T23:35:45.307Z,16.50
2018-07-08T23:38:13.683Z,15.50
2018-07-08T23:40:42.087Z,25.77
2018-07-08T23:43:10.488Z,17.27
2018-07-08T23:45:38.867Z,15.20
2018-07-08T23:48:07.282Z,18.30
2018-07-08T23:50:35.667Z,15.40
2018-07-08T23:53:04.079Z,14.23
2018-07-08T23:55:32.476Z,17.13
2018-07-08T23:58:00.895Z,17.77
